sensor_id;sensor_type;location;lat;lon;timestamp;P1;durP1;ratioP1;P2;durP2;ratioP2
14125;SDS011;7141;49.484;11.242;2023-04-24T00:01:04;5.67;;;1.80;;
14125;SDS011;7141;49.484;11.242;2023-04-24T00:03:32;3.27;;;1.87;;
14125;SDS011;7141;49.484;11.242;2023-04-24T00:05:58;2.87;;;1.80;;
14125;SDS011;7141;49.484;11.242;2023-04-24T00:08:25;6.13;;;1.80;;
14125;SDS011;7141;49.484;11.242;2023-04-24T00:10:51;3.67;;;1.73;;
14125;SDS011;7141;49.484;11.242;2023-04-24T00:13:17;3.77;;;1.70;;
14125;SDS011;7141;49.484;11.242;2023-04-24T00:15:43;4.60;;;1.90;;
14125;SDS011;7141;49.484;11.242;2023-04-24T00:18:09;3.27;;;1.70;;
14125;SDS011;7141;49.484;11.242;2023-04-24T00:20:35;3.53;;;1.73;;
14125;SDS011;7141;49.484;11.242;2023-04-24T00:23:01;3.03;;;1.80;;
14125;SDS011;7141;49.484;11.242;2023-04-24T00:25:27;1.90;;;1.70;;
14125;SDS011;7141;49.484;11.242;2023-04-24T00:27:53;3.67;;;1.93;;
14125;SDS011;7141;49.484;11.242;2023-04-24T00:30:19;3.13;;;1.83;;
14125;SDS011;7141;49.484;11.242;2023-04-24T00:32:45;3.97;;;1.90;;
14125;SDS011;7141;49.484;11.242;2023-04-24T00:35:11;4.03;;;1.90;;
14125;SDS011;7141;49.484;11.242;2023-04-24T00:37:37;3.40;;;1.70;;
14125;SDS011;7141;49.484;11.242;2023-04-24T00:40:04;2.50;;;1.77;;
14125;SDS011;7141;49.484;11.242;2023-04-24T00:42:32;3.20;;;1.80;;
14125;SDS011;7141;49.484;11.242;2023-04-24T00:44:58;5.33;;;2.70;;
14125;SDS011;7141;49.484;11.242;2023-04-24T00:47:25;5.60;;;2.90;;
14125;SDS011;7141;49.484;11.242;2023-04-24T00:49:51;4.10;;;2.17;;
14125;SDS011;7141;49.484;11.242;2023-04-24T00:52:17;5.90;;;2.17;;
14125;SDS011;7141;49.484;11.242;2023-04-24T00:54:43;4.13;;;2.17;;
14125;SDS011;7141;49.484;11.242;2023-04-24T00:57:10;4.87;;;2.10;;
14125;SDS011;7141;49.484;11.242;2023-04-24T00:59:36;3.53;;;2.00;;
14125;SDS011;7141;49.484;11.242;2023-04-24T01:02:02;2.53;;;2.00;;
14125;SDS011;7141;49.484;11.242;2023-04-24T01:04:28;4.03;;;2.10;;
14125;SDS011;7141;49.484;11.242;2023-04-24T01:06:54;6.67;;;2.10;;
14125;SDS011;7141;49.484;11.242;2023-04-24T01:09:21;2.30;;;1.83;;
14125;SDS011;7141;49.484;11.242;2023-04-24T01:11:48;3.07;;;2.00;;
14125;SDS011;7141;49.484;11.242;2023-04-24T01:14:15;3.37;;;2.10;;
14125;SDS011;7141;49.484;11.242;2023-04-24T01:16:41;3.80;;;2.03;;
14125;SDS011;7141;49.484;11.242;2023-04-24T01:19:07;3.27;;;2.13;;
14125;SDS011;7141;49.484;11.242;2023-04-24T01:21:34;2.60;;;1.40;;
14125;SDS011;7141;49.484;11.242;2023-04-24T01:24:02;2.93;;;2.20;;
14125;SDS011;7141;49.484;11.242;2023-04-24T01:26:28;4.10;;;1.80;;
14125;SDS011;7141;49.484;11.242;2023-04-24T01:28:54;1.90;;;1.80;;
14125;SDS011;7141;49.484;11.242;2023-04-24T01:31:20;2.57;;;2.00;;
14125;SDS011;7141;49.484;11.242;2023-04-24T01:33:46;2.70;;;1.70;;
14125;SDS011;7141;49.484;11.242;2023-04-24T01:36:12;2.23;;;1.73;;
14125;SDS011;7141;49.484;11.242;2023-04-24T01:38:39;2.87;;;1.90;;
14125;SDS011;7141;49.484;11.242;2023-04-24T01:41:05;3.47;;;1.77;;
14125;SDS011;7141;49.484;11.242;2023-04-24T01:43:31;7.20;;;2.03;;
14125;SDS011;7141;49.484;11.242;2023-04-24T01:45:57;4.60;;;2.10;;
14125;SDS011;7141;49.484;11.242;2023-04-24T01:48:23;2.50;;;2.00;;
14125;SDS011;7141;49.484;11.242;2023-04-24T01:50:49;4.27;;;1.63;;
14125;SDS011;7141;49.484;11.242;2023-04-24T01:53:15;4.30;;;1.90;;
14125;SDS011;7141;49.484;11.242;2023-04-24T01:55:41;5.73;;;1.80;;
14125;SDS011;7141;49.484;11.242;2023-04-24T01:58:07;3.00;;;1.97;;
14125;SDS011;7141;49.484;11.242;2023-04-24T02:00:33;3.60;;;2.00;;
14125;SDS011;7141;49.484;11.242;2023-04-24T02:02:59;4.17;;;2.40;;
14125;SDS011;7141;49.484;11.242;2023-04-24T02:05:26;3.07;;;2.10;;
14125;SDS011;7141;49.484;11.242;2023-04-24T02:07:52;4.33;;;2.10;;
14125;SDS011;7141;49.484;11.242;2023-04-24T02:10:18;5.23;;;1.70;;
14125;SDS011;7141;49.484;11.242;2023-04-24T02:12:44;3.50;;;1.90;;
14125;SDS011;7141;49.484;11.242;2023-04-24T02:15:10;3.00;;;1.73;;
14125;SDS011;7141;49.484;11.242;2023-04-24T02:17:37;1.73;;;1.63;;
14125;SDS011;7141;49.484;11.242;2023-04-24T02:20:03;2.10;;;1.90;;
14125;SDS011;7141;49.484;11.242;2023-04-24T02:22:29;2.30;;;1.83;;
14125;SDS011;7141;49.484;11.242;2023-04-24T02:24:55;2.60;;;1.80;;
14125;SDS011;7141;49.484;11.242;2023-04-24T02:27:21;4.20;;;1.87;;
14125;SDS011;7141;49.484;11.242;2023-04-24T02:29:47;5.20;;;1.90;;
14125;SDS011;7141;49.484;11.242;2023-04-24T02:32:13;4.23;;;1.90;;
14125;SDS011;7141;49.484;11.242;2023-04-24T02:34:40;3.23;;;2.03;;
14125;SDS011;7141;49.484;11.242;2023-04-24T02:37:06;6.17;;;1.80;;
14125;SDS011;7141;49.484;11.242;2023-04-24T02:39:32;4.50;;;1.93;;
14125;SDS011;7141;49.484;11.242;2023-04-24T02:41:58;2.93;;;1.60;;
14125;SDS011;7141;49.484;11.242;2023-04-24T02:44:24;2.73;;;1.70;;
14125;SDS011;7141;49.484;11.242;2023-04-24T02:46:50;2.50;;;1.83;;
14125;SDS011;7141;49.484;11.242;2023-04-24T02:49:16;2.60;;;2.00;;
14125;SDS011;7141;49.484;11.242;2023-04-24T02:51:42;2.33;;;1.90;;
14125;SDS011;7141;49.484;11.242;2023-04-24T02:54:08;2.60;;;1.80;;
14125;SDS011;7141;49.484;11.242;2023-04-24T02:56:34;5.23;;;2.03;;
14125;SDS011;7141;49.484;11.242;2023-04-24T02:59:00;2.63;;;1.90;;
14125;SDS011;7141;49.484;11.242;2023-04-24T03:01:26;2.00;;;1.77;;
14125;SDS011;7141;49.484;11.242;2023-04-24T03:03:52;3.27;;;1.80;;
14125;SDS011;7141;49.484;11.242;2023-04-24T03:06:18;2.30;;;2.00;;
14125;SDS011;7141;49.484;11.242;2023-04-24T03:08:46;2.10;;;1.80;;
14125;SDS011;7141;49.484;11.242;2023-04-24T03:11:12;2.27;;;1.63;;
14125;SDS011;7141;49.484;11.242;2023-04-24T03:13:38;2.77;;;2.00;;
14125;SDS011;7141;49.484;11.242;2023-04-24T03:16:04;2.20;;;2.00;;
14125;SDS011;7141;49.484;11.242;2023-04-24T03:18:30;2.77;;;2.10;;
14125;SDS011;7141;49.484;11.242;2023-04-24T03:20:56;4.40;;;1.90;;
14125;SDS011;7141;49.484;11.242;2023-04-24T03:23:22;4.07;;;2.00;;
14125;SDS011;7141;49.484;11.242;2023-04-24T03:25:48;3.17;;;1.70;;
14125;SDS011;7141;49.484;11.242;2023-04-24T03:28:14;3.30;;;2.53;;
14125;SDS011;7141;49.484;11.242;2023-04-24T03:30:40;4.07;;;2.20;;
14125;SDS011;7141;49.484;11.242;2023-04-24T03:33:06;2.97;;;2.07;;
14125;SDS011;7141;49.484;11.242;2023-04-24T03:35:32;3.00;;;1.80;;
14125;SDS011;7141;49.484;11.242;2023-04-24T03:37:58;3.53;;;1.93;;
14125;SDS011;7141;49.484;11.242;2023-04-24T03:40:24;2.27;;;1.77;;
14125;SDS011;7141;49.484;11.242;2023-04-24T03:42:50;5.00;;;2.27;;
14125;SDS011;7141;49.484;11.242;2023-04-24T03:45:16;3.50;;;2.40;;
14125;SDS011;7141;49.484;11.242;2023-04-24T03:47:42;3.10;;;2.27;;
14125;SDS011;7141;49.484;11.242;2023-04-24T03:50:08;3.77;;;2.27;;
14125;SDS011;7141;49.484;11.242;2023-04-24T03:52:34;5.53;;;3.43;;
14125;SDS011;7141;49.484;11.242;2023-04-24T03:55:00;33.33;;;15.23;;
14125;SDS011;7141;49.484;11.242;2023-04-24T03:57:26;18.43;;;10.27;;
14125;SDS011;7141;49.484;11.242;2023-04-24T03:59:52;25.43;;;12.67;;
14125;SDS011;7141;49.484;11.242;2023-04-24T04:02:18;14.23;;;7.90;;
14125;SDS011;7141;49.484;11.242;2023-04-24T04:04:44;12.80;;;7.70;;
14125;SDS011;7141;49.484;11.242;2023-04-24T04:07:10;5.83;;;3.47;;
14125;SDS011;7141;49.484;11.242;2023-04-24T04:09:37;6.00;;;3.03;;
14125;SDS011;7141;49.484;11.242;2023-04-24T04:12:03;3.90;;;2.97;;
14125;SDS011;7141;49.484;11.242;2023-04-24T04:14:29;3.37;;;2.43;;
14125;SDS011;7141;49.484;11.242;2023-04-24T04:16:55;5.60;;;2.23;;
14125;SDS011;7141;49.484;11.242;2023-04-24T04:19:21;2.90;;;2.40;;
14125;SDS011;7141;49.484;11.242;2023-04-24T04:21:47;5.20;;;2.77;;
14125;SDS011;7141;49.484;11.242;2023-04-24T04:24:18;2.53;;;2.30;;
14125;SDS011;7141;49.484;11.242;2023-04-24T04:26:45;4.30;;;3.07;;
14125;SDS011;7141;49.484;11.242;2023-04-24T04:29:12;13.13;;;8.63;;
14125;SDS011;7141;49.484;11.242;2023-04-24T04:31:38;10.53;;;7.40;;
14125;SDS011;7141;49.484;11.242;2023-04-24T04:34:04;8.30;;;6.20;;
14125;SDS011;7141;49.484;11.242;2023-04-24T04:36:30;5.83;;;4.07;;
14125;SDS011;7141;49.484;11.242;2023-04-24T04:38:57;2.60;;;2.10;;
14125;SDS011;7141;49.484;11.242;2023-04-24T04:41:24;3.97;;;2.10;;
14125;SDS011;7141;49.484;11.242;2023-04-24T04:43:51;3.67;;;2.37;;
14125;SDS011;7141;49.484;11.242;2023-04-24T04:46:17;2.70;;;1.87;;
14125;SDS011;7141;49.484;11.242;2023-04-24T04:48:43;4.60;;;2.13;;
14125;SDS011;7141;49.484;11.242;2023-04-24T04:51:10;4.17;;;2.27;;
14125;SDS011;7141;49.484;11.242;2023-04-24T04:53:36;4.17;;;2.20;;
14125;SDS011;7141;49.484;11.242;2023-04-24T04:56:02;2.97;;;2.10;;
14125;SDS011;7141;49.484;11.242;2023-04-24T04:58:28;4.37;;;2.50;;
14125;SDS011;7141;49.484;11.242;2023-04-24T05:00:54;3.63;;;2.57;;
14125;SDS011;7141;49.484;11.242;2023-04-24T05:03:22;3.53;;;2.83;;
14125;SDS011;7141;49.484;11.242;2023-04-24T05:05:48;4.53;;;2.80;;
14125;SDS011;7141;49.484;11.242;2023-04-24T05:08:14;4.07;;;2.83;;
14125;SDS011;7141;49.484;11.242;2023-04-24T05:10:40;3.60;;;2.37;;
14125;SDS011;7141;49.484;11.242;2023-04-24T05:13:06;6.10;;;2.47;;
14125;SDS011;7141;49.484;11.242;2023-04-24T05:15:32;4.47;;;2.53;;
14125;SDS011;7141;49.484;11.242;2023-04-24T05:17:58;4.27;;;2.60;;
14125;SDS011;7141;49.484;11.242;2023-04-24T05:20:24;6.17;;;2.67;;
14125;SDS011;7141;49.484;11.242;2023-04-24T05:22:50;2.87;;;2.30;;
14125;SDS011;7141;49.484;11.242;2023-04-24T05:25:16;2.53;;;2.30;;
14125;SDS011;7141;49.484;11.242;2023-04-24T05:27:42;5.13;;;2.70;;
14125;SDS011;7141;49.484;11.242;2023-04-24T05:30:09;3.10;;;2.40;;
14125;SDS011;7141;49.484;11.242;2023-04-24T05:32:35;4.10;;;2.30;;
14125;SDS011;7141;49.484;11.242;2023-04-24T05:35:01;3.67;;;2.10;;
14125;SDS011;7141;49.484;11.242;2023-04-24T05:37:27;6.43;;;3.03;;
14125;SDS011;7141;49.484;11.242;2023-04-24T05:39:53;4.67;;;2.20;;
14125;SDS011;7141;49.484;11.242;2023-04-24T05:42:19;3.47;;;2.60;;
14125;SDS011;7141;49.484;11.242;2023-04-24T05:44:45;3.77;;;2.57;;
14125;SDS011;7141;49.484;11.242;2023-04-24T05:47:11;5.93;;;2.63;;
14125;SDS011;7141;49.484;11.242;2023-04-24T05:49:37;2.37;;;2.13;;
14125;SDS011;7141;49.484;11.242;2023-04-24T05:52:03;6.40;;;2.40;;
14125;SDS011;7141;49.484;11.242;2023-04-24T05:54:31;3.30;;;2.20;;
14125;SDS011;7141;49.484;11.242;2023-04-24T05:56:57;2.70;;;1.73;;
14125;SDS011;7141;49.484;11.242;2023-04-24T05:59:23;5.83;;;2.40;;
14125;SDS011;7141;49.484;11.242;2023-04-24T06:01:49;5.47;;;2.30;;
14125;SDS011;7141;49.484;11.242;2023-04-24T06:04:15;3.33;;;2.00;;
14125;SDS011;7141;49.484;11.242;2023-04-24T06:06:41;5.50;;;2.60;;
14125;SDS011;7141;49.484;11.242;2023-04-24T06:09:07;3.67;;;2.33;;
14125;SDS011;7141;49.484;11.242;2023-04-24T06:11:33;3.23;;;2.30;;
14125;SDS011;7141;49.484;11.242;2023-04-24T06:13:59;3.07;;;2.03;;
14125;SDS011;7141;49.484;11.242;2023-04-24T06:16:25;2.37;;;2.10;;
14125;SDS011;7141;49.484;11.242;2023-04-24T06:18:51;3.53;;;2.30;;
14125;SDS011;7141;49.484;11.242;2023-04-24T06:21:17;3.30;;;2.30;;
14125;SDS011;7141;49.484;11.242;2023-04-24T06:23:43;3.83;;;2.80;;
14125;SDS011;7141;49.484;11.242;2023-04-24T06:26:11;2.43;;;1.80;;
14125;SDS011;7141;49.484;11.242;2023-04-24T06:28:37;4.17;;;2.23;;
14125;SDS011;7141;49.484;11.242;2023-04-24T06:31:03;2.47;;;2.10;;
14125;SDS011;7141;49.484;11.242;2023-04-24T06:33:29;2.57;;;1.67;;
14125;SDS011;7141;49.484;11.242;2023-04-24T06:35:55;2.77;;;1.80;;
14125;SDS011;7141;49.484;11.242;2023-04-24T06:38:21;3.80;;;1.77;;
14125;SDS011;7141;49.484;11.242;2023-04-24T06:40:47;2.33;;;1.53;;
14125;SDS011;7141;49.484;11.242;2023-04-24T06:43:13;1.60;;;1.50;;
14125;SDS011;7141;49.484;11.242;2023-04-24T06:45:39;2.53;;;1.67;;
14125;SDS011;7141;49.484;11.242;2023-04-24T06:48:05;3.13;;;1.60;;
14125;SDS011;7141;49.484;11.242;2023-04-24T06:50:31;2.97;;;2.07;;
14125;SDS011;7141;49.484;11.242;2023-04-24T06:52:57;1.67;;;1.57;;
14125;SDS011;7141;49.484;11.242;2023-04-24T06:55:23;4.13;;;1.50;;
14125;SDS011;7141;49.484;11.242;2023-04-24T06:57:49;6.23;;;1.60;;
14125;SDS011;7141;49.484;11.242;2023-04-24T07:00:15;2.57;;;1.50;;
14125;SDS011;7141;49.484;11.242;2023-04-24T07:02:41;2.33;;;1.50;;
14125;SDS011;7141;49.484;11.242;2023-04-24T07:05:07;2.57;;;1.80;;
14125;SDS011;7141;49.484;11.242;2023-04-24T07:07:33;1.70;;;1.53;;
14125;SDS011;7141;49.484;11.242;2023-04-24T07:10:02;2.97;;;1.50;;
14125;SDS011;7141;49.484;11.242;2023-04-24T07:12:28;3.03;;;1.77;;
14125;SDS011;7141;49.484;11.242;2023-04-24T07:14:54;1.40;;;1.30;;
14125;SDS011;7141;49.484;11.242;2023-04-24T07:17:20;1.73;;;1.30;;
14125;SDS011;7141;49.484;11.242;2023-04-24T07:19:46;4.27;;;1.43;;
14125;SDS011;7141;49.484;11.242;2023-04-24T07:22:12;2.10;;;1.40;;
14125;SDS011;7141;49.484;11.242;2023-04-24T07:24:42;2.87;;;1.40;;
14125;SDS011;7141;49.484;11.242;2023-04-24T07:27:08;3.07;;;1.13;;
14125;SDS011;7141;49.484;11.242;2023-04-24T07:29:34;2.50;;;1.33;;
14125;SDS011;7141;49.484;11.242;2023-04-24T07:32:00;1.33;;;1.23;;
14125;SDS011;7141;49.484;11.242;2023-04-24T07:34:26;2.00;;;1.37;;
14125;SDS011;7141;49.484;11.242;2023-04-24T07:36:52;2.73;;;1.37;;
14125;SDS011;7141;49.484;11.242;2023-04-24T07:39:18;1.33;;;1.10;;
14125;SDS011;7141;49.484;11.242;2023-04-24T07:41:44;2.00;;;1.40;;
14125;SDS011;7141;49.484;11.242;2023-04-24T07:44:10;1.50;;;1.30;;
14125;SDS011;7141;49.484;11.242;2023-04-24T07:46:36;3.03;;;1.67;;
14125;SDS011;7141;49.484;11.242;2023-04-24T07:49:02;1.30;;;1.20;;
14125;SDS011;7141;49.484;11.242;2023-04-24T07:51:29;1.90;;;1.30;;
14125;SDS011;7141;49.484;11.242;2023-04-24T07:53:56;7.33;;;1.57;;
14125;SDS011;7141;49.484;11.242;2023-04-24T07:56:22;3.30;;;1.50;;
14125;SDS011;7141;49.484;11.242;2023-04-24T07:58:48;1.33;;;1.20;;
14125;SDS011;7141;49.484;11.242;2023-04-24T08:01:14;1.63;;;1.40;;
14125;SDS011;7141;49.484;11.242;2023-04-24T08:03:39;1.50;;;1.40;;
14125;SDS011;7141;49.484;11.242;2023-04-24T08:06:05;2.00;;;1.60;;
14125;SDS011;7141;49.484;11.242;2023-04-24T08:08:31;1.17;;;1.07;;
14125;SDS011;7141;49.484;11.242;2023-04-24T08:10:57;3.00;;;1.60;;
14125;SDS011;7141;49.484;11.242;2023-04-24T08:13:23;2.17;;;1.70;;
14125;SDS011;7141;49.484;11.242;2023-04-24T08:15:49;3.90;;;1.60;;
14125;SDS011;7141;49.484;11.242;2023-04-24T08:18:15;2.20;;;1.57;;
14125;SDS011;7141;49.484;11.242;2023-04-24T08:20:41;2.77;;;1.50;;
14125;SDS011;7141;49.484;11.242;2023-04-24T08:23:08;4.10;;;1.80;;
14125;SDS011;7141;49.484;11.242;2023-04-24T08:25:34;2.43;;;1.60;;
14125;SDS011;7141;49.484;11.242;2023-04-24T08:28:01;2.87;;;1.70;;
14125;SDS011;7141;49.484;11.242;2023-04-24T08:30:27;2.73;;;1.90;;
14125;SDS011;7141;49.484;11.242;2023-04-24T08:32:53;1.63;;;1.40;;
14125;SDS011;7141;49.484;11.242;2023-04-24T08:35:19;3.20;;;1.70;;
14125;SDS011;7141;49.484;11.242;2023-04-24T08:37:45;2.43;;;1.70;;
14125;SDS011;7141;49.484;11.242;2023-04-24T08:40:12;3.40;;;1.57;;
14125;SDS011;7141;49.484;11.242;2023-04-24T08:42:41;2.00;;;1.60;;
14125;SDS011;7141;49.484;11.242;2023-04-24T08:45:07;2.07;;;1.53;;
14125;SDS011;7141;49.484;11.242;2023-04-24T08:47:34;2.13;;;1.60;;
14125;SDS011;7141;49.484;11.242;2023-04-24T08:50:02;5.10;;;1.57;;
14125;SDS011;7141;49.484;11.242;2023-04-24T08:52:28;4.17;;;1.60;;
14125;SDS011;7141;49.484;11.242;2023-04-24T08:54:54;4.23;;;1.90;;
14125;SDS011;7141;49.484;11.242;2023-04-24T08:57:20;1.87;;;1.67;;
14125;SDS011;7141;49.484;11.242;2023-04-24T08:59:47;4.13;;;1.93;;
14125;SDS011;7141;49.484;11.242;2023-04-24T09:02:13;2.43;;;2.20;;
14125;SDS011;7141;49.484;11.242;2023-04-24T09:04:40;3.87;;;2.10;;
14125;SDS011;7141;49.484;11.242;2023-04-24T09:07:06;2.00;;;1.80;;
14125;SDS011;7141;49.484;11.242;2023-04-24T09:09:33;2.73;;;2.10;;
14125;SDS011;7141;49.484;11.242;2023-04-24T09:12:00;2.90;;;2.00;;
14125;SDS011;7141;49.484;11.242;2023-04-24T09:14:27;3.20;;;2.03;;
14125;SDS011;7141;49.484;11.242;2023-04-24T09:16:53;4.43;;;2.10;;
14125;SDS011;7141;49.484;11.242;2023-04-24T09:19:19;3.30;;;1.90;;
14125;SDS011;7141;49.484;11.242;2023-04-24T09:21:46;3.27;;;1.73;;
14125;SDS011;7141;49.484;11.242;2023-04-24T09:24:19;2.43;;;1.93;;
14125;SDS011;7141;49.484;11.242;2023-04-24T09:26:47;2.47;;;1.90;;
14125;SDS011;7141;49.484;11.242;2023-04-24T09:29:17;2.87;;;2.10;;
14125;SDS011;7141;49.484;11.242;2023-04-24T09:31:44;2.27;;;2.07;;
14125;SDS011;7141;49.484;11.242;2023-04-24T09:34:10;2.90;;;2.07;;
14125;SDS011;7141;49.484;11.242;2023-04-24T09:36:36;2.93;;;1.73;;
14125;SDS011;7141;49.484;11.242;2023-04-24T09:39:06;2.10;;;1.90;;
14125;SDS011;7141;49.484;11.242;2023-04-24T09:41:43;2.77;;;2.00;;
14125;SDS011;7141;49.484;11.242;2023-04-24T09:44:14;2.50;;;1.83;;
14125;SDS011;7141;49.484;11.242;2023-04-24T09:46:41;2.10;;;1.90;;
14125;SDS011;7141;49.484;11.242;2023-04-24T09:49:12;2.13;;;1.90;;
14125;SDS011;7141;49.484;11.242;2023-04-24T09:51:38;3.20;;;2.03;;
14125;SDS011;7141;49.484;11.242;2023-04-24T09:54:11;2.97;;;2.07;;
14125;SDS011;7141;49.484;11.242;2023-04-24T09:56:41;2.53;;;1.90;;
14125;SDS011;7141;49.484;11.242;2023-04-24T09:59:09;6.53;;;2.13;;
14125;SDS011;7141;49.484;11.242;2023-04-24T10:01:35;2.53;;;1.90;;
14125;SDS011;7141;49.484;11.242;2023-04-24T10:04:03;3.23;;;1.87;;
14125;SDS011;7141;49.484;11.242;2023-04-24T10:06:35;4.87;;;2.00;;
14125;SDS011;7141;49.484;11.242;2023-04-24T10:09:01;1.93;;;1.60;;
14125;SDS011;7141;49.484;11.242;2023-04-24T10:11:28;1.87;;;1.57;;
14125;SDS011;7141;49.484;11.242;2023-04-24T10:13:55;2.10;;;1.70;;
14125;SDS011;7141;49.484;11.242;2023-04-24T10:16:22;1.80;;;1.40;;
14125;SDS011;7141;49.484;11.242;2023-04-24T10:18:48;1.90;;;1.50;;
14125;SDS011;7141;49.484;11.242;2023-04-24T10:21:15;1.87;;;1.60;;
14125;SDS011;7141;49.484;11.242;2023-04-24T10:23:42;1.57;;;1.47;;
14125;SDS011;7141;49.484;11.242;2023-04-24T10:26:12;3.40;;;1.87;;
14125;SDS011;7141;49.484;11.242;2023-04-24T10:28:44;1.60;;;1.50;;
14125;SDS011;7141;49.484;11.242;2023-04-24T10:31:10;2.67;;;1.20;;
14125;SDS011;7141;49.484;11.242;2023-04-24T10:33:37;1.83;;;1.43;;
14125;SDS011;7141;49.484;11.242;2023-04-24T10:36:06;2.27;;;1.30;;
14125;SDS011;7141;49.484;11.242;2023-04-24T10:38:32;1.87;;;1.20;;
14125;SDS011;7141;49.484;11.242;2023-04-24T10:41:11;1.13;;;1.03;;
14125;SDS011;7141;49.484;11.242;2023-04-24T10:43:48;1.93;;;1.20;;
14125;SDS011;7141;49.484;11.242;2023-04-24T10:46:21;1.73;;;1.47;;
14125;SDS011;7141;49.484;11.242;2023-04-24T10:48:54;1.87;;;1.10;;
14125;SDS011;7141;49.484;11.242;2023-04-24T10:51:22;1.17;;;1.00;;
14125;SDS011;7141;49.484;11.242;2023-04-24T10:53:49;3.40;;;1.87;;
14125;SDS011;7141;49.484;11.242;2023-04-24T10:56:15;3.47;;;1.17;;
14125;SDS011;7141;49.484;11.242;2023-04-24T10:58:42;1.73;;;1.13;;
14125;SDS011;7141;49.484;11.242;2023-04-24T11:01:28;5.90;;;1.30;;
14125;SDS011;7141;49.484;11.242;2023-04-24T11:03:58;0.80;;;0.80;;
14125;SDS011;7141;49.484;11.242;2023-04-24T11:06:34;1.20;;;1.00;;
14125;SDS011;7141;49.484;11.242;2023-04-24T11:09:04;4.60;;;1.30;;
14125;SDS011;7141;49.484;11.242;2023-04-24T11:11:31;1.23;;;1.13;;
14125;SDS011;7141;49.484;11.242;2023-04-24T11:16:28;1.57;;;1.20;;
14125;SDS011;7141;49.484;11.242;2023-04-24T11:19:07;1.27;;;1.10;;
14125;SDS011;7141;49.484;11.242;2023-04-24T11:21:40;0.90;;;0.90;;
14125;SDS011;7141;49.484;11.242;2023-04-24T11:26:48;1.30;;;1.20;;
14125;SDS011;7141;49.484;11.242;2023-04-24T11:29:14;1.30;;;1.20;;
14125;SDS011;7141;49.484;11.242;2023-04-24T11:31:40;1.90;;;1.20;;
14125;SDS011;7141;49.484;11.242;2023-04-24T11:34:24;1.83;;;1.20;;
14125;SDS011;7141;49.484;11.242;2023-04-24T11:36:50;2.50;;;1.23;;
14125;SDS011;7141;49.484;11.242;2023-04-24T11:39:16;1.63;;;1.23;;
14125;SDS011;7141;49.484;11.242;2023-04-24T11:41:42;2.60;;;1.30;;
14125;SDS011;7141;49.484;11.242;2023-04-24T11:44:09;1.50;;;1.33;;
14125;SDS011;7141;49.484;11.242;2023-04-24T11:46:36;3.83;;;1.30;;
14125;SDS011;7141;49.484;11.242;2023-04-24T11:49:04;1.67;;;1.50;;
14125;SDS011;7141;49.484;11.242;2023-04-24T11:51:31;3.33;;;1.20;;
14125;SDS011;7141;49.484;11.242;2023-04-24T11:53:57;1.50;;;1.27;;
14125;SDS011;7141;49.484;11.242;2023-04-24T11:56:24;1.87;;;1.50;;
14125;SDS011;7141;49.484;11.242;2023-04-24T11:58:52;1.70;;;1.60;;
14125;SDS011;7141;49.484;11.242;2023-04-24T12:01:19;2.07;;;1.30;;
14125;SDS011;7141;49.484;11.242;2023-04-24T12:03:49;2.37;;;1.50;;
14125;SDS011;7141;49.484;11.242;2023-04-24T12:06:16;2.43;;;1.60;;
14125;SDS011;7141;49.484;11.242;2023-04-24T12:08:45;2.13;;;1.73;;
14125;SDS011;7141;49.484;11.242;2023-04-24T12:11:11;2.50;;;1.80;;
14125;SDS011;7141;49.484;11.242;2023-04-24T12:13:40;3.17;;;1.77;;
14125;SDS011;7141;49.484;11.242;2023-04-24T12:16:06;9.93;;;2.40;;
14125;SDS011;7141;49.484;11.242;2023-04-24T12:18:32;1.77;;;1.60;;
14125;SDS011;7141;49.484;11.242;2023-04-24T12:21:17;1.30;;;1.20;;
14125;SDS011;7141;49.484;11.242;2023-04-24T12:23:43;3.03;;;1.40;;
14125;SDS011;7141;49.484;11.242;2023-04-24T12:26:16;1.60;;;1.50;;
14125;SDS011;7141;49.484;11.242;2023-04-24T12:28:42;2.57;;;1.60;;
14125;SDS011;7141;49.484;11.242;2023-04-24T12:31:08;1.60;;;1.50;;
14125;SDS011;7141;49.484;11.242;2023-04-24T12:33:35;1.60;;;1.50;;
14125;SDS011;7141;49.484;11.242;2023-04-24T12:36:01;2.77;;;1.60;;
14125;SDS011;7141;49.484;11.242;2023-04-24T12:38:28;2.40;;;1.70;;
14125;SDS011;7141;49.484;11.242;2023-04-24T12:41:05;1.60;;;1.50;;
14125;SDS011;7141;49.484;11.242;2023-04-24T12:43:31;2.20;;;1.70;;
14125;SDS011;7141;49.484;11.242;2023-04-24T12:45:57;1.80;;;1.70;;
14125;SDS011;7141;49.484;11.242;2023-04-24T12:48:24;2.17;;;1.87;;
14125;SDS011;7141;49.484;11.242;2023-04-24T12:50:50;2.93;;;1.80;;
14125;SDS011;7141;49.484;11.242;2023-04-24T12:53:16;2.37;;;1.77;;
14125;SDS011;7141;49.484;11.242;2023-04-24T12:55:42;1.67;;;1.57;;
14125;SDS011;7141;49.484;11.242;2023-04-24T12:58:09;1.70;;;1.40;;
14125;SDS011;7141;49.484;11.242;2023-04-24T13:00:35;1.50;;;1.40;;
14125;SDS011;7141;49.484;11.242;2023-04-24T13:03:01;3.83;;;1.70;;
14125;SDS011;7141;49.484;11.242;2023-04-24T13:05:27;4.53;;;1.60;;
14125;SDS011;7141;49.484;11.242;2023-04-24T13:07:53;1.50;;;1.30;;
14125;SDS011;7141;49.484;11.242;2023-04-24T13:10:19;2.33;;;1.07;;
14125;SDS011;7141;49.484;11.242;2023-04-24T13:12:45;1.07;;;0.97;;
14125;SDS011;7141;49.484;11.242;2023-04-24T13:15:11;1.33;;;1.00;;
14125;SDS011;7141;49.484;11.242;2023-04-24T13:17:38;2.47;;;1.43;;
14125;SDS011;7141;49.484;11.242;2023-04-24T13:20:04;1.73;;;1.10;;
14125;SDS011;7141;49.484;11.242;2023-04-24T13:22:30;1.33;;;1.23;;
14125;SDS011;7141;49.484;11.242;2023-04-24T13:24:56;1.97;;;1.40;;
14125;SDS011;7141;49.484;11.242;2023-04-24T13:27:23;2.03;;;1.43;;
14125;SDS011;7141;49.484;11.242;2023-04-24T13:29:49;2.10;;;1.30;;
14125;SDS011;7141;49.484;11.242;2023-04-24T13:32:16;1.07;;;1.00;;
14125;SDS011;7141;49.484;11.242;2023-04-24T13:34:42;2.10;;;1.50;;
14125;SDS011;7141;49.484;11.242;2023-04-24T13:37:08;3.03;;;1.63;;
14125;SDS011;7141;49.484;11.242;2023-04-24T13:39:34;2.50;;;1.53;;
14125;SDS011;7141;49.484;11.242;2023-04-24T13:42:00;2.90;;;1.70;;
14125;SDS011;7141;49.484;11.242;2023-04-24T13:44:26;1.97;;;1.30;;
14125;SDS011;7141;49.484;11.242;2023-04-24T13:46:53;1.40;;;1.27;;
14125;SDS011;7141;49.484;11.242;2023-04-24T13:49:21;1.70;;;1.50;;
14125;SDS011;7141;49.484;11.242;2023-04-24T13:51:49;2.17;;;1.83;;
14125;SDS011;7141;49.484;11.242;2023-04-24T13:54:15;2.20;;;1.63;;
14125;SDS011;7141;49.484;11.242;2023-04-24T13:56:41;2.33;;;1.70;;
14125;SDS011;7141;49.484;11.242;2023-04-24T13:59:07;2.63;;;1.90;;
14125;SDS011;7141;49.484;11.242;2023-04-24T14:01:33;3.63;;;1.43;;
14125;SDS011;7141;49.484;11.242;2023-04-24T14:03:59;2.13;;;1.80;;
14125;SDS011;7141;49.484;11.242;2023-04-24T14:06:25;2.17;;;1.80;;
14125;SDS011;7141;49.484;11.242;2023-04-24T14:08:52;1.97;;;1.50;;
14125;SDS011;7141;49.484;11.242;2023-04-24T14:11:18;4.67;;;1.67;;
14125;SDS011;7141;49.484;11.242;2023-04-24T14:13:44;2.03;;;1.57;;
14125;SDS011;7141;49.484;11.242;2023-04-24T14:16:11;1.97;;;1.50;;
14125;SDS011;7141;49.484;11.242;2023-04-24T14:18:37;1.90;;;1.50;;
14125;SDS011;7141;49.484;11.242;2023-04-24T14:21:03;1.53;;;1.43;;
14125;SDS011;7141;49.484;11.242;2023-04-24T14:23:30;3.00;;;1.83;;
14125;SDS011;7141;49.484;11.242;2023-04-24T14:25:59;1.80;;;1.70;;
14125;SDS011;7141;49.484;11.242;2023-04-24T14:28:25;2.80;;;1.73;;
14125;SDS011;7141;49.484;11.242;2023-04-24T14:30:51;2.40;;;1.93;;
14125;SDS011;7141;49.484;11.242;2023-04-24T14:33:18;2.13;;;1.90;;
14125;SDS011;7141;49.484;11.242;2023-04-24T14:35:44;1.87;;;1.70;;
14125;SDS011;7141;49.484;11.242;2023-04-24T14:38:10;2.50;;;1.97;;
14125;SDS011;7141;49.484;11.242;2023-04-24T14:40:36;2.57;;;2.00;;
14125;SDS011;7141;49.484;11.242;2023-04-24T14:43:02;1.90;;;1.70;;
14125;SDS011;7141;49.484;11.242;2023-04-24T14:45:28;2.47;;;2.20;;
14125;SDS011;7141;49.484;11.242;2023-04-24T14:47:55;2.33;;;2.13;;
14125;SDS011;7141;49.484;11.242;2023-04-24T14:50:21;2.70;;;2.40;;